createdAt,value
2022-10-07T00:01:05.858Z,3.47
2022-10-07T00:03:33.179Z,3.03
2022-10-07T00:06:19.331Z,3.65
2022-10-07T00:08:51.934Z,3.20
2022-10-07T00:11:29.034Z,3.00
2022-10-07T00:14:00.190Z,3.00
2022-10-07T00:16:34.674Z,3.03
2022-10-07T00:19:05.655Z,3.47
2022-10-07T00:21:35.450Z,3.13
2022-10-07T00:24:03.315Z,3.33
2022-10-07T00:26:33.517Z,3.15
2022-10-07T00:29:01.071Z,2.92
2022-10-07T00:31:32.771Z,3.10
2022-10-07T00:34:02.231Z,3.42
2022-10-07T00:36:35.525Z,3.08
2022-10-07T00:39:14.932Z,3.13
2022-10-07T00:41:50.333Z,3.47
2022-10-07T00:44:39.358Z,3.08
2022-10-07T00:47:32.079Z,2.90
2022-10-07T00:50:11.020Z,3.03
2022-10-07T00:52:46.563Z,2.85
2022-10-07T00:55:20.199Z,3.45
2022-10-07T00:57:49.623Z,3.25
2022-10-07T01:00:17.066Z,2.75
2022-10-07T01:02:45.057Z,3.33
2022-10-07T01:05:14.086Z,2.50
2022-10-07T01:07:46.616Z,2.70
2022-10-07T01:10:18.605Z,3.28
2022-10-07T01:13:15.035Z,3.17
2022-10-07T01:16:30.610Z,2.95
2022-10-07T01:19:36.262Z,2.83
2022-10-07T01:22:51.684Z,2.78
2022-10-07T01:25:41.186Z,2.80
2022-10-07T01:28:19.732Z,2.53
2022-10-07T01:30:58.859Z,2.63
2022-10-07T01:33:32.250Z,2.55
2022-10-07T01:36:15.403Z,2.78
2022-10-07T01:38:51.131Z,2.78
2022-10-07T01:41:21.314Z,2.60
2022-10-07T01:43:52.841Z,2.58
2022-10-07T01:46:24.809Z,2.78
2022-10-07T01:48:54.244Z,3.05
2022-10-07T01:51:30.816Z,3.20
2022-10-07T01:54:14.188Z,3.25
2022-10-07T01:57:02.490Z,2.85
2022-10-07T02:00:06.790Z,2.95
2022-10-07T02:03:24.723Z,4.32
2022-10-07T02:06:10.882Z,3.00
2022-10-07T02:08:52.623Z,3.30
2022-10-07T02:11:25.487Z,3.80
2022-10-07T02:14:18.544Z,3.67
2022-10-07T02:16:56.913Z,2.88
2022-10-07T02:19:34.087Z,3.20
2022-10-07T02:22:02.923Z,3.78
2022-10-07T02:24:35.759Z,3.20
2022-10-07T02:27:13.747Z,3.45
2022-10-07T02:29:46.738Z,3.42
2022-10-07T02:32:21.284Z,3.10
2022-10-07T02:35:00.811Z,3.75
2022-10-07T02:37:35.125Z,3.80
2022-10-07T02:40:09.628Z,4.28
2022-10-07T02:43:03.406Z,3.97
2022-10-07T02:45:38.908Z,3.47
2022-10-07T02:48:23.580Z,4.30
2022-10-07T02:51:00.968Z,3.92
2022-10-07T02:53:29.763Z,4.35
2022-10-07T02:56:00.784Z,3.78
2022-10-07T02:58:28.187Z,4.45
2022-10-07T03:00:59.859Z,3.80
2022-10-07T03:03:27.943Z,3.80
2022-10-07T03:05:59.849Z,3.97
2022-10-07T03:08:27.849Z,3.80
2022-10-07T03:10:55.678Z,3.83
2022-10-07T03:13:24.772Z,4.00
2022-10-07T03:15:55.989Z,4.38
2022-10-07T03:18:26.431Z,4.60
2022-10-07T03:21:00.090Z,4.28
2022-10-07T03:23:29.585Z,4.75
2022-10-07T03:25:59.333Z,4.15
2022-10-07T03:28:31.199Z,4.53
2022-10-07T03:31:11.681Z,4.47
2022-10-07T03:33:43.604Z,4.10
2022-10-07T03:36:10.480Z,3.83
2022-10-07T03:38:40.030Z,4.63
2022-10-07T03:41:08.394Z,3.80
2022-10-07T03:43:35.499Z,3.88
2022-10-07T03:46:05.321Z,4.25
2022-10-07T03:48:34.598Z,4.15
2022-10-07T03:51:02.380Z,4.22
2022-10-07T03:53:31.755Z,4.00
2022-10-07T03:56:00.868Z,4.38
2022-10-07T03:58:29.720Z,4.30
2022-10-07T04:01:09.536Z,4.15
2022-10-07T04:03:38.277Z,4.32
2022-10-07T04:06:06.350Z,3.83
2022-10-07T04:08:35.036Z,4.30
2022-10-07T04:11:09.834Z,4.22
2022-10-07T04:14:03.214Z,3.88
2022-10-07T04:16:38.016Z,4.35
2022-10-07T04:19:19.923Z,3.72
2022-10-07T04:21:53.925Z,4.25
2022-10-07T04:24:24.493Z,4.40
2022-10-07T04:26:52.423Z,3.70
2022-10-07T04:29:23.720Z,3.72
2022-10-07T04:31:58.820Z,4.03
2022-10-07T04:34:31.080Z,3.50
2022-10-07T04:37:03.772Z,3.88
2022-10-07T04:39:59.247Z,4.40
2022-10-07T04:42:47.139Z,4.28
2022-10-07T04:45:26.329Z,4.03
2022-10-07T04:48:00.279Z,3.70
2022-10-07T04:50:33.402Z,3.53
2022-10-07T04:53:10.302Z,3.97
2022-10-07T04:55:40.758Z,4.85
2022-10-07T04:58:18.527Z,3.90
2022-10-07T05:01:04.747Z,3.72
2022-10-07T05:03:41.850Z,4.10
2022-10-07T05:06:17.149Z,4.30
2022-10-07T05:08:49.979Z,4.63
2022-10-07T05:11:20.324Z,4.75
2022-10-07T05:13:59.516Z,3.90
2022-10-07T05:16:26.751Z,3.28
2022-10-07T05:18:59.753Z,3.70
2022-10-07T05:21:27.970Z,3.58
2022-10-07T05:24:03.788Z,3.75
2022-10-07T05:26:35.649Z,4.15
2022-10-07T05:29:09.455Z,3.58
2022-10-07T05:31:42.279Z,4.18
2022-10-07T05:34:10.442Z,3.47
2022-10-07T05:36:47.905Z,4.18
2022-10-07T05:39:16.121Z,3.78
2022-10-07T05:41:59.303Z,3.85
2022-10-07T05:44:37.720Z,3.65
2022-10-07T05:47:07.253Z,3.33
2022-10-07T05:49:41.436Z,3.30
2022-10-07T05:52:08.527Z,3.63
2022-10-07T05:54:36.485Z,4.15
2022-10-07T05:57:11.375Z,3.75
2022-10-07T05:59:42.629Z,3.10
2022-10-07T06:02:19.054Z,3.15
2022-10-07T06:04:50.648Z,3.80
2022-10-07T06:07:21.479Z,3.00
2022-10-07T06:10:21.133Z,3.80
2022-10-07T06:13:10.472Z,3.63
2022-10-07T06:15:44.104Z,3.00
2022-10-07T06:18:29.340Z,3.00
2022-10-07T06:21:07.300Z,3.40
2022-10-07T06:23:43.780Z,3.22
2022-10-07T06:26:16.017Z,3.20
2022-10-07T06:28:43.076Z,3.20
2022-10-07T06:31:28.544Z,3.30
2022-10-07T06:34:10.113Z,3.15
2022-10-07T06:36:45.064Z,3.00
2022-10-07T06:39:16.240Z,2.95
2022-10-07T06:41:47.300Z,2.85
2022-10-07T06:44:53.973Z,2.92
2022-10-07T06:47:30.375Z,3.13
2022-10-07T06:49:59.751Z,3.70
2022-10-07T06:52:27.719Z,3.10
2022-10-07T06:54:59.071Z,3.45
2022-10-07T06:57:46.192Z,3.13
2022-10-07T07:00:16.742Z,2.72
2022-10-07T07:02:49.654Z,3.25
2022-10-07T07:05:25.122Z,3.15
2022-10-07T07:08:09.391Z,2.67
2022-10-07T07:10:43.016Z,2.90
2022-10-07T07:13:18.439Z,2.50
2022-10-07T07:15:56.237Z,3.10
2022-10-07T07:18:30.936Z,3.65
2022-10-07T07:21:08.907Z,3.05
2022-10-07T07:23:39.381Z,3.42
2022-10-07T07:26:06.682Z,2.55
2022-10-07T07:28:34.170Z,3.65
2022-10-07T07:31:12.588Z,2.83
2022-10-07T07:33:53.219Z,2.85
2022-10-07T07:36:29.364Z,2.40
2022-10-07T07:39:08.594Z,2.90
2022-10-07T07:41:46.726Z,2.53
2022-10-07T07:44:24.838Z,2.30
2022-10-07T07:46:57.871Z,2.53
2022-10-07T07:49:25.125Z,2.55
2022-10-07T07:51:58.726Z,1.92
2022-10-07T07:54:34.191Z,2.60
2022-10-07T07:57:09.463Z,2.40
2022-10-07T07:59:49.395Z,2.85
2022-10-07T08:02:27.801Z,2.28
2022-10-07T08:04:55.073Z,3.00
2022-10-07T08:07:35.434Z,2.00
2022-10-07T08:10:07.144Z,2.67
2022-10-07T08:12:35.473Z,2.50
2022-10-07T08:15:06.250Z,2.97
2022-10-07T08:17:38.580Z,2.45
2022-10-07T08:20:06.960Z,2.58
2022-10-07T08:22:35.863Z,2.78
2022-10-07T08:25:07.097Z,1.98
2022-10-07T08:27:35.117Z,2.78
2022-10-07T08:30:13.385Z,2.22
2022-10-07T08:32:41.755Z,2.10
2022-10-07T08:35:09.213Z,2.15
2022-10-07T08:37:36.296Z,2.70
2022-10-07T08:40:04.232Z,2.70
2022-10-07T08:42:39.572Z,2.25
2022-10-07T08:45:12.663Z,2.50
2022-10-07T08:47:47.449Z,2.15
2022-10-07T08:50:32.562Z,2.38
2022-10-07T08:53:28.590Z,2.47
2022-10-07T08:56:13.915Z,2.28
2022-10-07T08:59:28.826Z,3.50
2022-10-07T09:02:25.786Z,2.28
2022-10-07T09:05:37.123Z,2.58
2022-10-07T09:08:31.568Z,2.47
2022-10-07T09:11:18.628Z,2.03
2022-10-07T09:14:13.159Z,2.90
2022-10-07T09:16:44.845Z,2.45
2022-10-07T09:19:50.329Z,2.58
2022-10-07T09:22:42.796Z,2.40
2022-10-07T09:25:34.054Z,2.08
2022-10-07T09:28:04.159Z,2.45
2022-10-07T09:30:41.219Z,2.60
2022-10-07T09:33:24.563Z,2.40
2022-10-07T09:36:08.211Z,2.72
2022-10-07T09:38:49.685Z,2.20
2022-10-07T09:41:34.009Z,2.50
2022-10-07T09:44:18.096Z,2.25
2022-10-07T09:47:40.470Z,2.10
2022-10-07T09:50:41.940Z,2.05
2022-10-07T09:53:29.642Z,1.80
2022-10-07T09:56:02.147Z,2.70
2022-10-07T09:58:32.469Z,2.15
2022-10-07T10:01:02.348Z,2.45
2022-10-07T10:03:32.642Z,2.33
2022-10-07T10:06:06.990Z,2.40
2022-10-07T10:08:39.683Z,2.60
2022-10-07T10:11:25.795Z,2.20
2022-10-07T10:13:52.867Z,2.58
2022-10-07T10:16:25.986Z,2.72
2022-10-07T10:19:33.497Z,2.50
2022-10-07T10:22:03.451Z,1.90
2022-10-07T10:24:51.298Z,2.78
2022-10-07T10:27:32.700Z,2.00
2022-10-07T10:30:16.596Z,1.85
2022-10-07T10:33:16.803Z,2.53
2022-10-07T10:36:23.888Z,2.20
2022-10-07T10:39:06.074Z,2.38
2022-10-07T10:41:48.529Z,2.58
2022-10-07T10:44:43.746Z,2.47
2022-10-07T10:47:44.265Z,2.22
2022-10-07T10:50:48.994Z,2.40
2022-10-07T10:54:05.162Z,1.85
2022-10-07T10:57:01.783Z,2.47
2022-10-07T10:59:56.147Z,2.40
2022-10-07T11:02:36.929Z,1.95
2022-10-07T11:05:35.357Z,2.75
2022-10-07T11:08:19.034Z,2.20
2022-10-07T11:11:06.626Z,2.13
2022-10-07T11:13:58.266Z,1.80
2022-10-07T11:16:36.896Z,2.03
2022-10-07T11:19:20.590Z,2.60
2022-10-07T11:21:54.868Z,2.35
2022-10-07T11:24:36.053Z,2.05
2022-10-07T11:27:25.229Z,2.35
2022-10-07T11:30:22.970Z,1.52
2022-10-07T11:33:19.955Z,1.60
2022-10-07T11:35:57.480Z,2.20
2022-10-07T11:38:37.260Z,1.80
2022-10-07T11:41:31.068Z,2.33
2022-10-07T11:44:08.395Z,1.63
2022-10-07T11:46:41.131Z,1.40
2022-10-07T11:49:55.695Z,1.83
2022-10-07T11:52:32.930Z,2.33
2022-10-07T11:55:17.792Z,1.65
2022-10-07T11:57:59.030Z,1.90
2022-10-07T12:00:33.637Z,1.60
2022-10-07T12:03:18.470Z,1.55
2022-10-07T12:05:51.246Z,1.85
2022-10-07T12:08:31.287Z,1.67
2022-10-07T12:11:12.974Z,1.50
2022-10-07T12:13:50.762Z,2.00
2022-10-07T12:16:23.824Z,1.45
2022-10-07T12:19:23.552Z,1.65
2022-10-07T12:21:59.514Z,1.25
2022-10-07T12:24:37.557Z,1.85
2022-10-07T12:27:13.576Z,1.60
2022-10-07T12:30:01.948Z,1.95
2022-10-07T12:32:51.624Z,1.27
2022-10-07T12:35:34.430Z,1.17
2022-10-07T12:38:19.422Z,1.73
2022-10-07T12:41:02.335Z,1.30
2022-10-07T12:43:52.796Z,1.55
2022-10-07T12:46:23.132Z,1.70
2022-10-07T12:49:14.395Z,1.40
2022-10-07T12:51:43.680Z,1.80
2022-10-07T12:54:20.428Z,1.85
2022-10-07T12:56:49.308Z,1.70
2022-10-07T12:59:53.392Z,1.65
2022-10-07T13:02:31.267Z,1.58
2022-10-07T13:05:51.688Z,2.00
2022-10-07T13:09:05.304Z,1.77
2022-10-07T13:12:12.761Z,2.13
2022-10-07T13:14:57.393Z,1.48
2022-10-07T13:17:48.498Z,1.40
2022-10-07T13:20:23.031Z,1.58
2022-10-07T13:22:50.256Z,1.50
2022-10-07T13:25:20.695Z,1.40
2022-10-07T13:27:58.965Z,1.55
2022-10-07T13:30:41.009Z,1.67
2022-10-07T13:33:34.044Z,1.80
2022-10-07T13:36:18.112Z,1.70
2022-10-07T13:38:47.799Z,1.55
2022-10-07T13:41:45.000Z,1.50
2022-10-07T13:44:18.261Z,1.63
2022-10-07T13:46:59.808Z,2.22
2022-10-07T13:49:32.901Z,1.50
2022-10-07T13:52:06.594Z,3.15
2022-10-07T13:54:34.423Z,1.50
2022-10-07T13:57:02.820Z,1.63
2022-10-07T13:59:36.437Z,2.28
2022-10-07T14:02:04.424Z,1.40
2022-10-07T14:04:34.103Z,1.67
2022-10-07T14:07:12.990Z,1.65
2022-10-07T14:10:11.082Z,1.75
2022-10-07T14:12:47.830Z,1.60
2022-10-07T14:15:36.916Z,1.55
2022-10-07T14:18:11.040Z,1.10
2022-10-07T14:20:43.697Z,1.25
2022-10-07T14:23:32.759Z,1.75
2022-10-07T14:26:02.101Z,2.75
2022-10-07T14:28:32.950Z,1.40
2022-10-07T14:31:27.080Z,2.17
2022-10-07T14:34:15.436Z,2.05
2022-10-07T14:37:09.558Z,2.50
2022-10-07T14:39:42.613Z,1.60
2022-10-07T14:42:17.918Z,1.92
2022-10-07T14:44:45.527Z,1.80
2022-10-07T14:47:21.661Z,1.88
2022-10-07T14:49:48.980Z,1.70
2022-10-07T14:52:29.589Z,1.55
2022-10-07T14:55:02.453Z,1.50
2022-10-07T14:57:29.340Z,1.98
2022-10-07T14:59:56.233Z,1.63
2022-10-07T15:02:23.003Z,2.47
2022-10-07T15:04:49.873Z,1.70
2022-10-07T15:07:17.824Z,1.80
2022-10-07T15:09:46.296Z,1.80
2022-10-07T15:12:15.890Z,1.70
2022-10-07T15:14:43.111Z,2.20
2022-10-07T15:17:14.759Z,2.00
2022-10-07T15:19:41.600Z,1.70
2022-10-07T15:22:08.408Z,1.75
2022-10-07T15:24:35.235Z,1.70
2022-10-07T15:27:02.423Z,1.25
2022-10-07T15:29:29.177Z,1.33
2022-10-07T15:31:55.936Z,1.58
2022-10-07T15:34:22.756Z,1.27
2022-10-07T15:36:50.210Z,1.58
2022-10-07T15:39:16.971Z,1.70
2022-10-07T15:41:44.210Z,1.73
2022-10-07T15:44:16.571Z,1.48
2022-10-07T15:46:45.858Z,1.70
2022-10-07T15:49:13.111Z,1.70
2022-10-07T15:51:40.784Z,1.60
2022-10-07T15:54:07.975Z,2.08
2022-10-07T15:56:34.799Z,2.20
2022-10-07T15:59:01.985Z,1.73
2022-10-07T16:01:31.983Z,1.90
2022-10-07T16:04:01.697Z,2.00
2022-10-07T16:06:33.101Z,1.92
2022-10-07T16:09:01.595Z,1.70
2022-10-07T16:11:30.288Z,1.58
2022-10-07T16:14:01.790Z,1.83
2022-10-07T16:16:32.906Z,1.58
2022-10-07T16:19:00.823Z,1.98
2022-10-07T16:21:40.492Z,1.95
2022-10-07T16:24:08.550Z,2.03
2022-10-07T16:26:37.283Z,1.77
2022-10-07T16:29:30.852Z,1.38
2022-10-07T16:31:59.104Z,1.80
2022-10-07T16:34:28.272Z,2.15
2022-10-07T16:36:57.340Z,1.88
2022-10-07T16:39:24.831Z,1.73
2022-10-07T16:41:52.380Z,1.55
2022-10-07T16:44:20.309Z,2.05
2022-10-07T16:46:48.418Z,2.08
2022-10-07T16:49:17.985Z,1.90
2022-10-07T16:51:45.840Z,1.83
2022-10-07T16:54:17.136Z,2.08
2022-10-07T16:56:47.979Z,1.60
2022-10-07T16:59:25.787Z,5.95
2022-10-07T17:01:56.267Z,3.92
2022-10-07T17:04:25.083Z,2.60
2022-10-07T17:06:53.259Z,2.35
2022-10-07T17:09:21.762Z,3.20
2022-10-07T17:11:48.732Z,2.03
2022-10-07T17:14:21.583Z,2.10
2022-10-07T17:16:56.627Z,2.28
2022-10-07T17:19:27.277Z,1.80
2022-10-07T17:21:55.913Z,2.92
2022-10-07T17:24:23.454Z,2.85
2022-10-07T17:26:52.442Z,2.45
2022-10-07T17:29:21.773Z,3.20
2022-10-07T17:31:50.490Z,2.45
2022-10-07T17:34:20.518Z,4.13
2022-10-07T17:36:49.111Z,2.70
2022-10-07T17:39:17.119Z,3.72
2022-10-07T17:41:43.880Z,2.75
2022-10-07T17:44:12.335Z,13.15
2022-10-07T17:46:40.846Z,4.63
2022-10-07T17:49:13.080Z,4.10
2022-10-07T17:51:42.427Z,2.47
2022-10-07T17:54:12.164Z,2.20
2022-10-07T17:56:39.185Z,2.80
2022-10-07T17:59:06.028Z,3.45
2022-10-07T18:01:34.988Z,2.42
2022-10-07T18:04:10.140Z,2.65
2022-10-07T18:06:39.515Z,2.78
2022-10-07T18:09:09.059Z,4.85
2022-10-07T18:11:55.043Z,3.35
2022-10-07T18:14:41.637Z,3.15
2022-10-07T18:17:11.026Z,2.90
2022-10-07T18:19:39.665Z,1.88
2022-10-07T18:22:06.824Z,3.40
2022-10-07T18:24:33.607Z,2.42
2022-10-07T18:27:01.720Z,2.17
2022-10-07T18:29:37.961Z,2.60
2022-10-07T18:32:08.114Z,3.40
2022-10-07T18:34:35.079Z,3.40
2022-10-07T18:37:02.338Z,2.40
2022-10-07T18:39:29.642Z,2.55
2022-10-07T18:41:57.046Z,2.10
2022-10-07T18:44:24.063Z,2.35
2022-10-07T18:46:51.307Z,2.58
2022-10-07T18:49:18.174Z,2.05
2022-10-07T18:51:46.828Z,2.20
2022-10-07T18:54:13.780Z,2.50
2022-10-07T18:56:41.556Z,2.72
2022-10-07T18:59:13.002Z,3.58
2022-10-07T19:01:40.822Z,2.45
2022-10-07T19:04:10.034Z,2.70
2022-10-07T19:06:45.940Z,2.00
2022-10-07T19:09:20.261Z,2.67
2022-10-07T19:11:48.267Z,2.30
2022-10-07T19:14:15.958Z,2.28
2022-10-07T19:16:49.011Z,2.28
2022-10-07T19:19:22.497Z,2.17
2022-10-07T19:21:53.122Z,3.08
2022-10-07T19:24:41.208Z,2.72
2022-10-07T19:27:08.059Z,2.50
2022-10-07T19:29:34.796Z,2.92
2022-10-07T19:32:05.788Z,2.13
2022-10-07T19:34:35.016Z,3.05
2022-10-07T19:37:01.827Z,2.40
2022-10-07T19:39:28.729Z,2.65
2022-10-07T19:41:57.311Z,1.75
2022-10-07T19:44:24.813Z,2.20
2022-10-07T19:46:54.055Z,2.17
2022-10-07T19:49:20.970Z,2.90
2022-10-07T19:51:47.736Z,2.33
2022-10-07T19:54:14.555Z,2.10
2022-10-07T19:56:41.907Z,4.57
2022-10-07T19:59:11.893Z,2.85
2022-10-07T20:01:42.200Z,2.85
2022-10-07T20:04:15.874Z,3.72
2022-10-07T20:06:43.707Z,3.40
2022-10-07T20:09:15.342Z,3.25
2022-10-07T20:11:43.341Z,3.20
2022-10-07T20:14:10.480Z,2.97
2022-10-07T20:16:38.916Z,2.83
2022-10-07T20:19:11.075Z,3.08
2022-10-07T20:21:39.354Z,3.50
2022-10-07T20:24:07.746Z,3.17
2022-10-07T20:26:38.118Z,4.95
2022-10-07T20:29:07.384Z,3.47
2022-10-07T20:31:38.633Z,2.75
2022-10-07T20:34:12.179Z,2.10
2022-10-07T20:36:38.987Z,2.83
2022-10-07T20:39:44.923Z,3.60
2022-10-07T20:42:29.120Z,2.60
2022-10-07T20:44:59.931Z,2.42
2022-10-07T20:47:31.999Z,3.05
2022-10-07T20:50:00.412Z,2.00
2022-10-07T20:52:29.688Z,2.45
2022-10-07T20:54:56.743Z,2.88
2022-10-07T20:57:28.640Z,2.95
2022-10-07T20:59:55.743Z,3.50
2022-10-07T21:02:23.990Z,2.50
2022-10-07T21:04:51.056Z,2.10
2022-10-07T21:07:19.601Z,2.72
2022-10-07T21:09:47.576Z,2.60
2022-10-07T21:12:17.920Z,1.85
2022-10-07T21:14:47.680Z,2.88
2022-10-07T21:17:14.515Z,3.25
2022-10-07T21:19:41.715Z,2.38
2022-10-07T21:22:08.749Z,2.33
2022-10-07T21:24:35.915Z,2.60
2022-10-07T21:27:05.797Z,2.95
2022-10-07T21:29:36.269Z,2.97
2022-10-07T21:32:06.375Z,1.77
2022-10-07T21:34:33.172Z,3.10
2022-10-07T21:37:00.543Z,2.28
2022-10-07T21:39:27.362Z,2.60
2022-10-07T21:41:54.595Z,2.60
2022-10-07T21:44:21.480Z,2.30
2022-10-07T21:46:48.357Z,1.90
2022-10-07T21:49:16.406Z,2.00
2022-10-07T21:51:44.261Z,1.92
2022-10-07T21:54:15.146Z,1.65
2022-10-07T21:56:45.680Z,2.10
2022-10-07T21:59:13.456Z,2.38
2022-10-07T22:01:40.309Z,1.73
2022-10-07T22:04:08.001Z,1.65
2022-10-07T22:06:53.186Z,1.80
2022-10-07T22:09:21.159Z,1.98
2022-10-07T22:11:49.171Z,1.75
2022-10-07T22:14:18.512Z,2.17
2022-10-07T22:16:48.109Z,2.05
2022-10-07T22:19:16.502Z,1.73
2022-10-07T22:21:43.572Z,2.20
2022-10-07T22:24:10.460Z,2.30
2022-10-07T22:26:46.006Z,1.90
2022-10-07T22:29:15.972Z,1.50
2022-10-07T22:31:43.048Z,1.88
2022-10-07T22:34:29.921Z,1.70
2022-10-07T22:36:57.991Z,1.95
2022-10-07T22:39:26.156Z,2.05
2022-10-07T22:41:53.553Z,2.10
2022-10-07T22:44:20.461Z,1.63
2022-10-07T22:46:47.176Z,2.00
2022-10-07T22:49:14.899Z,1.55
2022-10-07T22:51:42.401Z,1.77
2022-10-07T22:54:13.108Z,2.08
2022-10-07T22:56:40.453Z,1.95
2022-10-07T22:59:08.455Z,1.88
2022-10-07T23:01:35.757Z,1.63
2022-10-07T23:04:03.900Z,1.75
2022-10-07T23:06:34.379Z,1.75
2022-10-07T23:09:02.732Z,1.70
2022-10-07T23:11:31.056Z,1.90
2022-10-07T23:13:59.259Z,2.17
2022-10-07T23:16:30.059Z,1.60
2022-10-07T23:18:58.718Z,1.92
2022-10-07T23:21:34.427Z,1.50
2022-10-07T23:24:07.311Z,1.92
2022-10-07T23:26:35.760Z,1.58
2022-10-07T23:29:03.254Z,1.98
2022-10-07T23:31:31.956Z,1.40
2022-10-07T23:34:00.864Z,1.70
2022-10-07T23:36:28.852Z,1.90
2022-10-07T23:38:56.164Z,1.55
2022-10-07T23:41:26.404Z,1.67
2022-10-07T23:43:57.184Z,1.40
2022-10-07T23:46:26.609Z,1.27
2022-10-07T23:48:54.340Z,0.80
2022-10-07T23:51:24.325Z,0.90
2022-10-07T23:53:51.795Z,1.15
2022-10-07T23:56:18.903Z,1.40
2022-10-07T23:58:45.834Z,0.75
